PWSweather.com
Personal Weather Stations
Station Observations
W7JKG
Phoenix, AZ 85032-2083

Phoenix, AZ 85032-2083

Lat: 33.645544, Lon: -112.007099

Elevation: 1474

Station Type: Davis Vantage Pro2 Wireless

http://tiggrweather.net/

High Low Average
Temperature 104.6°F40.3°C 79.8°F26.6°C 92.5°F33.6°C
Dew Point 44.0°F6.7°C 22.7°F-5.2°C 36.5°F2.5°C
Winds 6.9 mph 11.1 kmh Calm Calm 3.0 mph SSW4.8 kmh SSW
Wind Gusts 11.5 mph18.5 kmh -- 5.0 mph8.0 kmh
Humidity 26% 6% 15%
Pressure 29.85 in1010.8 mb 29.73 in1006.8 mb -
Precipitation 0.00 in0.0 mm - -
Hour Temp Dew Point Humidity Winds Wind Gusts Pressure Precip Precip Rate Daily Precip Total
12:00 AM 89.2°F31.8°C 38.7°F3.7°C 17% Calm Calm 1.2 mph1.9 kmh 29.77 in1008.1 mb - 0.00 in0.0 mm 0.00 in0.0 mm
01:00 AM 86.1°F30.1°C 39.0°F3.9°C 19% 1.2 mph NW1.9 kmh NW 2.3 mph3.7 kmh 29.79 in1008.8 mb - 0.00 in0.0 mm 0.00 in0.0 mm
02:00 AM 83.0°F28.3°C 41.4°F5.2°C 23% Calm Calm -- 29.79 in1008.8 mb - 0.00 in0.0 mm 0.00 in0.0 mm
03:00 AM 81.0°F27.2°C 40.8°F4.9°C 24% Calm Calm -- 29.79 in1008.8 mb - 0.00 in0.0 mm 0.00 in0.0 mm
04:00 AM 80.4°F26.9°C 40.3°F4.6°C 24% Calm Calm 1.2 mph1.9 kmh 29.79 in1008.8 mb - 0.00 in0.0 mm 0.00 in0.0 mm
05:00 AM 79.8°F26.6°C 40.8°F4.9°C 25% Calm Calm 1.2 mph1.9 kmh 29.80 in1009.1 mb - 0.00 in0.0 mm 0.00 in0.0 mm
06:00 AM 79.9°F26.6°C 38.8°F3.8°C 23% Calm Calm 1.2 mph1.9 kmh 29.82 in1009.8 mb - 0.00 in0.0 mm 0.00 in0.0 mm
07:00 AM 82.3°F27.9°C 44.0°F6.7°C 26% Calm Calm -- 29.83 in1010.2 mb - 0.00 in0.0 mm 0.00 in0.0 mm
08:00 AM 88.6°F31.4°C 38.2°F3.4°C 17% 2.3 mph SE3.7 kmh SE 3.5 mph5.6 kmh 29.84 in1010.5 mb - 0.00 in0.0 mm 0.00 in0.0 mm
09:00 AM 90.6°F32.6°C 39.8°F4.3°C 17% 3.5 mph ESE5.6 kmh ESE 6.9 mph11.1 kmh 29.85 in1010.8 mb - 0.00 in0.0 mm 0.00 in0.0 mm
10:00 AM 94.6°F34.8°C 39.7°F4.3°C 15% 4.6 mph SE7.4 kmh SE 10.4 mph16.7 kmh 29.85 in1010.8 mb - 0.00 in0.0 mm 0.00 in0.0 mm
11:00 AM 96.3°F35.7°C 35.4°F1.9°C 12% 3.5 mph S5.6 kmh S 3.5 mph5.6 kmh 29.85 in1010.8 mb - 0.00 in0.0 mm 0.00 in0.0 mm
12:00 PM 98.8°F37.1°C 35.2°F1.8°C 11% 6.9 mph SE11.1 kmh SE 11.5 mph18.5 kmh 29.84 in1010.5 mb - 0.00 in0.0 mm 0.00 in0.0 mm
01:00 PM 100.7°F38.2°C 36.6°F2.6°C 11% 4.6 mph SE7.4 kmh SE 8.1 mph13.0 kmh 29.82 in1009.8 mb - 0.00 in0.0 mm 0.00 in0.0 mm
02:00 PM 102.5°F39.2°C 30.0°F-1.1°C 8% 3.5 mph S5.6 kmh S 3.5 mph5.6 kmh 29.79 in1008.8 mb - 0.00 in0.0 mm 0.00 in0.0 mm
03:00 PM 102.1°F38.9°C 22.7°F-5.2°C 6% 6.9 mph E11.1 kmh E 9.2 mph14.8 kmh 29.77 in1008.1 mb - 0.00 in0.0 mm 0.00 in0.0 mm
04:00 PM 104.6°F40.3°C 28.2°F-2.1°C 7% 5.8 mph SSE9.3 kmh SSE 6.9 mph11.1 kmh 29.75 in1007.5 mb - 0.00 in0.0 mm 0.00 in0.0 mm
05:00 PM 102.9°F39.4°C 33.2°F0.7°C 9% 4.6 mph WNW7.4 kmh WNW 9.2 mph14.8 kmh 29.74 in1007.1 mb - 0.00 in0.0 mm 0.00 in0.0 mm
06:00 PM 101.7°F38.7°C 35.0°F1.7°C 10% 2.3 mph NW3.7 kmh NW 6.9 mph11.1 kmh 29.73 in1006.8 mb - 0.00 in0.0 mm 0.00 in0.0 mm
07:00 PM 100.3°F37.9°C 36.3°F2.4°C 11% 5.8 mph W9.3 kmh W 10.4 mph16.7 kmh 29.74 in1007.1 mb - 0.00 in0.0 mm 0.00 in0.0 mm
08:00 PM 97.6°F36.4°C 36.4°F2.4°C 12% 1.2 mph WSW1.9 kmh WSW 3.5 mph5.6 kmh 29.76 in1007.8 mb - 0.00 in0.0 mm 0.00 in0.0 mm
09:00 PM 94.8°F34.9°C 34.3°F1.3°C 12% 5.8 mph W9.3 kmh W 10.4 mph16.7 kmh 29.79 in1008.8 mb - 0.00 in0.0 mm 0.00 in0.0 mm
10:00 PM 92.7°F33.7°C 34.7°F1.5°C 13% 2.3 mph W3.7 kmh W 4.6 mph7.4 kmh 29.81 in1009.5 mb - 0.00 in0.0 mm 0.00 in0.0 mm
11:00 PM 89.2°F31.8°C 37.2°F2.9°C 16% Calm Calm -- 29.82 in1009.8 mb - 0.00 in0.0 mm 0.00 in0.0 mm